Time;durP1;ratioP1;P1;durP2;ratioP2;P2;SDS_P1;SDS_P2;PMS_P1;PMS_P2;Temp;Humidity;BMP_temperature;BMP_pressure;BME280_temperature;BME280_humidity;BME280_pressure;Samples;Min_cycle;Max_cycle;Signal;HPM_P1;HPM_P2
2022/12/07 00:00:53;;;;;;;21.55;16.40;;;3.60;99.90;;;;;;5050672;28;20017;-56
2022/12/07 00:03:19;;;;;;;24.83;16.45;;;3.60;99.90;;;;;;5050854;28;20445;-56
2022/12/07 00:05:44;;;;;;;22.92;16.30;;;3.60;99.90;;;;;;5050743;28;20025;-57
2022/12/07 00:08:10;;;;;;;26.38;17.42;;;3.60;99.90;;;;;;5050394;28;20073;-56
2022/12/07 00:10:36;;;;;;;21.80;16.27;;;3.50;99.90;;;;;;5050442;28;20025;-52
2022/12/07 00:13:01;;;;;;;21.23;15.38;;;3.50;99.90;;;;;;5049739;28;20057;-57
2022/12/07 00:15:27;;;;;;;23.92;17.48;;;3.50;99.90;;;;;;5050456;28;20017;-57
2022/12/07 00:17:52;;;;;;;24.90;16.92;;;3.40;99.90;;;;;;5050431;28;20060;-56
2022/12/07 00:20:18;;;;;;;23.00;17.30;;;3.40;99.90;;;;;;5050568;28;20025;-56
2022/12/07 00:22:44;;;;;;;24.40;15.93;;;3.40;99.90;;;;;;5050438;28;20025;-56
2022/12/07 00:25:09;;;;;;;28.50;17.92;;;3.50;99.90;;;;;;5050175;28;20729;-56
2022/12/07 00:27:35;;;;;;;22.10;16.73;;;3.50;99.90;;;;;;5050351;28;20475;-58
2022/12/07 00:30:04;;;;;;;21.98;17.38;;;3.50;99.90;;;;;;5050179;28;20025;-55
2022/12/07 00:32:30;;;;;;;23.90;16.25;;;3.50;99.90;;;;;;5050379;28;20025;-53
2022/12/07 00:34:56;;;;;;;24.48;16.95;;;3.50;99.90;;;;;;5050145;28;20557;-57
2022/12/07 00:37:21;;;;;;;22.02;16.08;;;3.50;99.90;;;;;;5050156;28;20029;-56
2022/12/07 00:39:47;;;;;;;23.15;17.13;;;3.50;99.90;;;;;;5050107;28;20173;-55
2022/12/07 00:42:12;;;;;;;29.27;18.23;;;3.50;99.90;;;;;;5050112;28;20013;-56
2022/12/07 00:44:38;;;;;;;25.70;16.42;;;3.40;99.90;;;;;;5050261;28;20025;-54
2022/12/07 00:47:04;;;;;;;24.75;16.35;;;3.50;99.90;;;;;;5049936;28;20045;-57
2022/12/07 00:49:30;;;;;;;24.67;16.35;;;3.60;99.90;;;;;;5050090;28;20025;-57
2022/12/07 00:51:58;;;;;;;23.85;16.70;;;3.60;99.90;;;;;;5049804;28;20528;-55
2022/12/07 00:54:24;;;;;;;25.85;16.63;;;3.50;99.90;;;;;;5050034;28;20402;-56
2022/12/07 00:56:49;;;;;;;26.52;17.63;;;3.50;99.90;;;;;;5049879;28;20162;-56
2022/12/07 00:59:15;;;;;;;26.90;17.13;;;3.50;99.90;;;;;;5049776;28;20115;-56
2022/12/07 01:01:41;;;;;;;25.75;17.75;;;3.40;99.90;;;;;;5050025;28;20100;-57
2022/12/07 01:04:07;;;;;;;25.70;16.88;;;3.40;99.90;;;;;;5049658;28;20036;-57
2022/12/07 01:06:33;;;;;;;24.23;16.23;;;3.40;99.90;;;;;;5049650;28;20029;-56
2022/12/07 01:08:59;;;;;;;35.28;20.40;;;3.50;99.90;;;;;;5049587;28;20021;-55
2022/12/07 01:11:27;;;;;;;28.02;18.08;;;3.40;99.90;;;;;;5049473;28;20041;-53
2022/12/07 01:13:55;;;;;;;27.20;17.73;;;3.40;99.90;;;;;;5049484;28;20123;-54
2022/12/07 01:16:22;;;;;;;28.83;18.42;;;3.30;99.90;;;;;;5049536;28;20367;-57
2022/12/07 01:18:50;;;;;;;26.40;17.17;;;3.30;99.90;;;;;;5049723;28;20071;-55
2022/12/07 01:21:22;;;;;;;26.23;17.38;;;3.30;99.90;;;;;;5049430;28;20013;-55
2022/12/07 01:23:48;;;;;;;25.85;17.48;;;3.30;99.90;;;;;;5049558;28;20382;-55
2022/12/07 01:26:20;;;;;;;32.60;17.52;;;3.30;99.90;;;;;;5049293;28;20052;-56
2022/12/07 01:28:46;;;;;;;26.85;18.20;;;3.40;99.90;;;;;;5049403;28;20035;-57
2022/12/07 01:31:17;;;;;;;29.00;17.83;;;3.30;99.90;;;;;;5049226;28;20024;-56
2022/12/07 01:33:46;;;;;;;37.25;18.63;;;3.30;99.90;;;;;;5049346;28;20021;-57
2022/12/07 01:36:17;;;;;;;27.73;17.95;;;3.30;99.90;;;;;;5049210;28;20124;-57
2022/12/07 01:38:43;;;;;;;29.65;16.85;;;3.30;99.90;;;;;;5049203;28;20063;-56
2022/12/07 01:41:09;;;;;;;29.75;17.90;;;3.40;99.90;;;;;;5049104;28;20456;-57
2022/12/07 01:43:35;;;;;;;29.08;18.88;;;3.30;99.90;;;;;;5049231;28;20506;-56
2022/12/07 01:46:03;;;;;;;30.17;18.33;;;3.30;99.90;;;;;;5048927;28;20082;-56
2022/12/07 01:48:41;;;;;;;27.85;17.35;;;3.30;99.90;;;;;;5048941;28;20605;-55
2022/12/07 01:51:10;;;;;;;30.30;19.38;;;3.30;99.90;;;;;;5048205;28;20029;-57
2022/12/07 01:53:40;;;;;;;29.65;18.30;;;3.30;99.90;;;;;;5048205;28;20376;-55
2022/12/07 01:56:08;;;;;;;26.42;17.00;;;3.20;99.90;;;;;;5047329;28;20123;-57
2022/12/07 01:58:34;;;;;;;30.73;17.85;;;3.30;99.90;;;;;;5047787;28;20025;-54
2022/12/07 02:01:00;;;;;;;28.58;18.08;;;3.30;99.90;;;;;;5047792;28;20108;-56
2022/12/07 02:03:34;;;;;;;26.52;16.80;;;3.30;99.90;;;;;;5048314;28;20096;-57
2022/12/07 02:06:00;;;;;;;26.60;17.75;;;3.30;99.90;;;;;;5048215;28;20086;-56
2022/12/07 02:08:26;;;;;;;31.58;18.73;;;3.30;99.90;;;;;;5048630;28;20058;-57
2022/12/07 02:10:52;;;;;;;31.05;18.02;;;3.20;99.90;;;;;;5048583;28;20085;-56
2022/12/07 02:13:26;;;;;;;26.20;17.52;;;3.30;99.90;;;;;;5048854;28;20041;-57
2022/12/07 02:16:01;;;;;;;28.70;16.30;;;3.20;99.90;;;;;;5048781;28;20028;-55
2022/12/07 02:19:08;;;;;;;28.60;17.17;;;3.20;99.90;;;;;;5048682;28;20033;-55
2022/12/07 02:21:57;;;;;;;29.08;17.58;;;3.20;99.90;;;;;;4986993;28;20076;-58
2022/12/07 02:24:41;;;;;;;25.70;18.05;;;3.30;99.90;;;;;;5043820;28;20120;-58
2022/12/07 02:27:13;;;;;;;27.85;17.70;;;3.20;99.90;;;;;;5047358;28;20032;-56
2022/12/07 02:29:54;;;;;;;32.22;16.85;;;3.20;99.90;;;;;;5048759;28;20021;-53
2022/12/07 02:32:27;;;;;;;30.50;17.88;;;3.30;99.90;;;;;;5048667;28;20060;-57
2022/12/07 02:35:04;;;;;;;25.65;16.42;;;3.20;99.90;;;;;;5048344;28;20039;-55
2022/12/07 02:37:40;;;;;;;24.85;15.85;;;3.30;99.90;;;;;;5050556;28;20103;-56
2022/12/07 02:40:17;;;;;;;27.35;16.80;;;3.20;99.90;;;;;;5051721;28;20406;-57
2022/12/07 02:42:49;;;;;;;27.65;17.02;;;3.10;99.90;;;;;;5052008;28;20128;-57
2022/12/07 02:45:20;;;;;;;25.02;16.20;;;3.10;99.90;;;;;;5051897;28;20060;-56
2022/12/07 02:47:50;;;;;;;25.30;15.80;;;3.20;99.90;;;;;;5052062;28;20036;-57
2022/12/07 02:50:21;;;;;;;28.38;17.75;;;3.20;99.90;;;;;;5052033;28;20039;-55
2022/12/07 02:52:47;;;;;;;22.92;15.68;;;3.10;99.90;;;;;;5050475;28;20064;-53
2022/12/07 02:55:18;;;;;;;23.98;16.92;;;3.20;99.90;;;;;;5051792;28;20488;-55
2022/12/07 02:58:14;;;;;;;27.92;15.73;;;3.20;99.90;;;;;;5051865;28;20025;-56
2022/12/07 03:00:58;;;;;;;28.27;18.48;;;3.20;99.90;;;;;;5046812;28;20033;-57
2022/12/07 03:03:23;;;;;;;;;;;3.10;99.90;;;;;;5052157;28;20018;-57
2022/12/07 03:05:49;;;;;;;26.30;16.45;;;3.10;99.90;;;;;;5051637;28;20380;-57
2022/12/07 03:08:25;;;;;;;61.00;28.95;;;3.10;99.90;;;;;;5051459;28;20123;-55
2022/12/07 03:11:02;;;;;;;46.75;24.33;;;3.10;99.90;;;;;;5051397;28;20112;-54
2022/12/07 03:13:41;;;;;;;25.80;16.83;;;3.10;99.90;;;;;;5051527;28;20635;-57
2022/12/07 03:16:21;;;;;;;24.42;15.52;;;3.20;99.90;;;;;;5051493;28;20376;-56
2022/12/07 03:19:19;;;;;;;21.77;15.93;;;3.20;99.90;;;;;;5050152;28;20029;-55
2022/12/07 03:21:51;;;;;;;21.00;15.68;;;3.20;99.90;;;;;;5051446;28;20391;-57
2022/12/07 03:24:23;;;;;;;21.08;15.48;;;3.20;99.90;;;;;;5051365;28;20031;-55
2022/12/07 03:26:53;;;;;;;23.30;15.38;;;3.20;99.90;;;;;;5051420;28;20025;-54
2022/12/07 03:29:27;;;;;;;20.58;15.32;;;3.20;99.90;;;;;;5051308;28;20035;-56
2022/12/07 03:32:04;;;;;;;21.42;15.15;;;3.20;99.90;;;;;;5051161;28;20075;-54
2022/12/07 03:34:43;;;;;;;35.42;22.38;;;3.20;99.90;;;;;;5051264;28;20017;-56
2022/12/07 03:37:36;;;;;;;19.10;14.20;;;3.20;99.90;;;;;;5051046;28;20026;-56
2022/12/07 03:40:22;;;;;;;21.92;14.82;;;3.20;99.90;;;;;;5044882;28;20033;-55
2022/12/07 03:42:48;;;;;;;23.15;15.07;;;3.30;99.90;;;;;;5051150;28;20013;-57
2022/12/07 03:45:15;;;;;;;23.48;15.52;;;3.10;99.90;;;;;;5050845;28;20056;-56
2022/12/07 03:47:52;;;;;;;22.80;16.98;;;3.20;99.90;;;;;;5050310;28;20440;-56
2022/12/07 03:50:24;;;;;;;19.98;14.60;;;3.10;99.90;;;;;;5050683;28;20021;-55
2022/12/07 03:53:04;;;;;;;25.55;16.15;;;3.10;99.90;;;;;;5050876;28;20064;-56
2022/12/07 03:55:34;;;;;;;18.13;14.00;;;3.20;99.90;;;;;;5050808;28;20112;-55
2022/12/07 03:58:03;;;;;;;23.08;15.20;;;3.30;99.90;;;;;;5050481;28;20021;-55
2022/12/07 04:00:29;;;;;;;20.85;14.55;;;3.20;99.90;;;;;;5050829;28;20027;-57
2022/12/07 04:02:55;;;;;;;20.65;15.43;;;3.30;99.90;;;;;;5050745;28;20112;-56
2022/12/07 04:05:21;;;;;;;21.35;15.57;;;3.20;99.90;;;;;;5050710;28;20017;-57
2022/12/07 04:07:46;;;;;;;21.42;15.52;;;3.20;99.90;;;;;;5050627;28;20491;-56
2022/12/07 04:10:13;;;;;;;21.67;16.23;;;3.10;99.90;;;;;;5050617;28;20067;-58
2022/12/07 04:12:39;;;;;;;20.85;15.68;;;3.10;99.90;;;;;;5050625;28;20049;-56
2022/12/07 04:15:05;;;;;;;22.85;15.98;;;3.10;99.90;;;;;;5050574;28;20523;-57
2022/12/07 04:17:31;;;;;;;21.48;16.05;;;3.10;99.90;;;;;;5050479;28;20353;-57
2022/12/07 04:20:04;;;;;;;22.05;16.90;;;3.10;99.90;;;;;;5050395;28;20021;-56
2022/12/07 04:22:29;;;;;;;24.67;17.40;;;3.10;99.90;;;;;;5049293;28;20484;-58
2022/12/07 04:24:55;;;;;;;21.40;15.85;;;3.10;99.90;;;;;;5050353;28;20100;-56
2022/12/07 04:27:21;;;;;;;24.38;18.63;;;3.20;99.90;;;;;;5050419;28;20391;-55
2022/12/07 04:29:46;;;;;;;26.92;19.70;;;3.20;99.90;;;;;;5050253;28;20565;-54
2022/12/07 04:32:12;;;;;;;22.75;15.32;;;3.10;99.90;;;;;;5050226;28;20453;-57
2022/12/07 04:34:38;;;;;;;26.80;17.42;;;3.10;99.90;;;;;;5049051;28;20509;-58
2022/12/07 04:37:03;;;;;;;18.65;15.30;;;3.10;99.90;;;;;;5049872;28;20048;-56
2022/12/07 04:39:33;;;;;;;17.13;14.35;;;3.20;99.90;;;;;;5050110;28;20036;-57
2022/12/07 04:42:04;;;;;;;22.00;15.48;;;3.20;99.90;;;;;;5050108;28;20029;-55
2022/12/07 04:44:30;;;;;;;18.67;14.18;;;3.20;99.90;;;;;;5049942;28;20021;-58
2022/12/07 04:46:56;;;;;;;20.58;15.02;;;3.30;99.90;;;;;;5050047;28;20116;-57
2022/12/07 04:49:23;;;;;;;20.08;15.05;;;3.20;99.90;;;;;;5050095;28;20035;-56
2022/12/07 04:51:49;;;;;;;19.25;14.55;;;3.20;99.90;;;;;;5050145;28;20028;-57
2022/12/07 04:54:15;;;;;;;20.13;15.43;;;3.30;99.90;;;;;;5049942;28;20074;-56
2022/12/07 04:56:42;;;;;;;19.10;14.60;;;3.20;99.90;;;;;;5049940;28;20395;-57
2022/12/07 04:59:08;;;;;;;20.77;16.27;;;3.20;99.90;;;;;;5049377;28;20047;-56
2022/12/07 05:01:34;;;;;;;22.55;14.82;;;3.20;99.90;;;;;;5049999;28;20019;-55
2022/12/07 05:04:00;;;;;;;19.20;15.15;;;3.30;99.90;;;;;;5049727;28;20104;-56
2022/12/07 05:06:26;;;;;;;19.77;15.13;;;3.20;99.90;;;;;;5049725;28;20079;-54
2022/12/07 05:08:51;;;;;;;21.02;16.17;;;3.30;99.90;;;;;;5049597;28;20104;-57
2022/12/07 05:14:03;;;;;;;19.67;15.57;;;3.20;99.90;;;;;;5049691;28;20487;-55
2022/12/07 05:16:29;;;;;;;23.23;17.25;;;3.10;99.90;;;;;;5049484;28;20401;-53
2022/12/07 05:18:55;;;;;;;20.77;15.77;;;3.10;99.90;;;;;;5049509;28;20032;-58
2022/12/07 05:21:20;;;;;;;21.50;15.70;;;3.10;99.90;;;;;;5049579;28;20017;-56
2022/12/07 05:23:46;;;;;;;24.77;17.77;;;3.00;99.90;;;;;;5049578;28;20525;-56
2022/12/07 05:26:12;;;;;;;18.83;15.10;;;3.10;99.90;;;;;;5049302;28;20025;-56
2022/12/07 05:28:38;;;;;;;23.90;15.50;;;3.10;99.90;;;;;;5049490;28;20513;-55
2022/12/07 05:31:03;;;;;;;23.83;16.35;;;3.00;99.90;;;;;;5049184;28;20078;-55
2022/12/07 05:33:29;;;;;;;25.05;17.58;;;3.00;99.90;;;;;;5049475;28;20060;-54
2022/12/07 05:35:55;;;;;;;20.33;16.05;;;3.00;99.90;;;;;;5049133;28;20040;-57
2022/12/07 05:38:20;;;;;;;23.48;16.10;;;3.00;99.90;;;;;;5049254;28;20611;-56
2022/12/07 05:40:46;;;;;;;22.50;16.33;;;3.00;99.90;;;;;;5049519;28;20017;-56
2022/12/07 05:43:11;;;;;;;20.60;16.27;;;3.00;99.90;;;;;;5049104;28;20082;-56
2022/12/07 05:45:37;;;;;;;24.25;17.00;;;3.00;99.90;;;;;;5049058;28;20017;-57
2022/12/07 05:48:03;;;;;;;22.23;17.08;;;3.00;99.90;;;;;;5048919;28;20056;-56
2022/12/07 05:50:28;;;;;;;21.83;16.80;;;3.00;99.90;;;;;;5049014;28;20431;-53
2022/12/07 05:52:54;;;;;;;45.97;24.70;;;3.00;99.90;;;;;;5048239;28;20090;-56
2022/12/07 05:55:51;;;;;;;22.80;16.52;;;2.90;99.90;;;;;;5048809;28;20028;-58
2022/12/07 06:01:01;;;;;;;25.92;18.60;;;2.90;99.90;;;;;;5048884;28;20101;-54
2022/12/07 06:03:27;;;;;;;24.55;19.42;;;2.80;99.90;;;;;;5048816;28;20017;-56
2022/12/07 06:05:53;;;;;;;21.33;15.52;;;2.80;99.90;;;;;;5048743;28;20028;-58
2022/12/07 06:08:19;;;;;;;24.80;16.20;;;2.90;99.90;;;;;;5048733;28;20073;-56
2022/12/07 06:10:44;;;;;;;22.35;16.52;;;2.90;99.90;;;;;;5048169;28;20033;-58
2022/12/07 06:13:10;;;;;;;24.65;17.13;;;2.90;99.90;;;;;;5048036;28;20098;-58
2022/12/07 06:15:36;;;;;;;21.95;16.55;;;3.00;99.90;;;;;;5048801;28;20419;-57
2022/12/07 06:18:02;;;;;;;22.75;15.93;;;2.90;99.90;;;;;;5047126;28;20037;-58
2022/12/07 06:20:28;;;;;;;20.67;16.25;;;2.90;99.90;;;;;;5047387;28;20032;-58
2022/12/07 06:22:53;;;;;;;21.48;16.40;;;2.90;99.90;;;;;;5048501;28;20021;-57
2022/12/07 06:25:19;;;;;;;20.42;15.60;;;2.90;99.90;;;;;;5048444;28;20058;-57
2022/12/07 06:27:45;;;;;;;21.65;17.42;;;2.90;99.90;;;;;;5048452;28;20025;-58
2022/12/07 06:30:10;;;;;;;19.65;15.40;;;2.90;99.90;;;;;;5048303;28;20029;-55
2022/12/07 06:32:37;;;;;;;24.63;17.17;;;2.90;99.90;;;;;;5048566;28;20546;-56
2022/12/07 06:35:03;;;;;;;21.65;16.60;;;2.90;99.90;;;;;;5048246;28;20058;-58
2022/12/07 06:37:29;;;;;;;21.92;16.50;;;2.90;99.90;;;;;;5048372;28;20025;-55
2022/12/07 06:39:54;;;;;;;27.60;18.00;;;2.90;99.90;;;;;;5048141;28;20028;-58
2022/12/07 06:42:20;;;;;;;26.00;17.48;;;2.80;99.90;;;;;;5048555;28;20032;-51
2022/12/07 06:44:51;;;;;;;24.33;18.02;;;2.80;99.90;;;;;;5048411;28;20029;-56
2022/12/07 06:47:17;;;;;;;23.15;17.55;;;2.80;99.90;;;;;;5048129;28;20062;-54
2022/12/07 06:49:43;;;;;;;22.90;16.92;;;2.80;99.90;;;;;;5048310;28;20064;-57
2022/12/07 06:52:08;;;;;;;23.52;17.30;;;2.80;99.90;;;;;;5048240;28;20040;-56
2022/12/07 06:54:34;;;;;;;20.98;16.55;;;2.80;99.90;;;;;;5048059;28;20028;-54
2022/12/07 06:56:59;;;;;;;30.45;18.73;;;2.80;99.90;;;;;;5047423;28;20040;-54
2022/12/07 06:59:25;;;;;;;29.35;18.10;;;2.80;99.90;;;;;;5047000;28;20104;-57
2022/12/07 07:01:51;;;;;;;24.58;17.90;;;2.70;99.90;;;;;;5046823;28;20116;-56
2022/12/07 07:04:16;;;;;;;25.77;18.25;;;2.80;99.90;;;;;;5046949;28;20021;-54
2022/12/07 07:06:42;;;;;;;26.00;17.00;;;2.80;99.90;;;;;;5046828;28;20017;-53
2022/12/07 07:09:09;;;;;;;21.52;16.38;;;2.90;99.90;;;;;;5046509;28;20480;-53
2022/12/07 07:11:35;;;;;;;22.17;16.63;;;2.90;99.90;;;;;;5045477;28;20495;-55
2022/12/07 07:14:02;;;;;;;22.52;15.75;;;2.90;99.90;;;;;;5046782;28;20077;-54
2022/12/07 07:16:30;;;;;;;22.80;16.75;;;2.90;99.90;;;;;;5045557;28;20524;-57
2022/12/07 07:18:56;;;;;;;24.00;17.60;;;2.80;99.90;;;;;;5046773;28;20025;-55
2022/12/07 07:21:22;;;;;;;24.27;17.27;;;2.80;99.90;;;;;;5045599;28;20494;-54
2022/12/07 07:23:47;;;;;;;24.20;18.63;;;2.70;99.90;;;;;;5049008;28;20407;-57
2022/12/07 07:26:13;;;;;;;27.85;17.98;;;2.80;99.90;;;;;;5049848;28;20028;-57
2022/12/07 07:28:39;;;;;;;31.17;21.92;;;2.80;99.90;;;;;;5050220;28;20074;-57
2022/12/07 07:31:04;;;;;;;34.10;22.35;;;2.80;99.90;;;;;;5049923;28;20036;-57
2022/12/07 07:33:30;;;;;;;20.27;17.10;;;2.80;99.90;;;;;;5050004;28;20028;-54
2022/12/07 07:35:56;;;;;;;22.75;17.15;;;2.80;99.90;;;;;;5049759;28;20021;-54
2022/12/07 07:38:21;;;;;;;23.58;17.80;;;2.80;99.90;;;;;;5049728;28;20036;-55
2022/12/07 07:40:47;;;;;;;105.75;39.72;;;2.80;99.90;;;;;;5050011;28;20499;-54
2022/12/07 07:43:13;;;;;;;21.95;17.65;;;2.90;99.90;;;;;;5049723;28;20025;-57
2022/12/07 07:45:38;;;;;;;24.85;16.25;;;2.90;99.90;;;;;;5049795;28;20032;-56
2022/12/07 07:48:04;;;;;;;24.13;17.17;;;2.90;99.90;;;;;;5049632;28;20025;-56
2022/12/07 07:50:30;;;;;;;22.55;17.02;;;2.90;99.90;;;;;;5049707;28;20111;-52
2022/12/07 07:52:57;;;;;;;20.48;15.55;;;2.90;99.90;;;;;;5049982;28;20498;-56
2022/12/07 07:55:22;;;;;;;20.58;17.35;;;2.90;99.90;;;;;;5049739;28;20029;-57
2022/12/07 07:57:48;;;;;;;23.63;16.58;;;2.90;99.90;;;;;;5049592;28;20028;-54
2022/12/07 08:00:14;;;;;;;25.88;18.15;;;3.00;99.90;;;;;;5049501;28;20070;-55
2022/12/07 08:02:42;;;;;;;19.00;15.93;;;3.00;99.90;;;;;;5049815;28;20044;-54
2022/12/07 08:05:08;;;;;;;20.52;16.15;;;3.00;99.90;;;;;;5049471;28;20069;-54
2022/12/07 08:07:34;;;;;;;21.48;16.55;;;3.00;99.90;;;;;;5049407;28;20483;-57
2022/12/07 08:09:59;;;;;;;21.63;15.02;;;3.00;99.90;;;;;;5049423;28;20382;-56
2022/12/07 08:12:25;;;;;;;25.58;16.00;;;3.00;99.90;;;;;;5049465;28;20045;-56
2022/12/07 08:14:51;;;;;;;24.33;18.00;;;3.00;99.90;;;;;;5049273;28;20546;-55
2022/12/07 08:17:16;;;;;;;29.17;19.02;;;3.00;99.90;;;;;;5049460;28;20026;-56
2022/12/07 08:19:42;;;;;;;25.38;18.63;;;2.90;99.90;;;;;;5049696;28;20021;-55
2022/12/07 08:22:08;;;;;;;24.27;17.95;;;2.90;99.90;;;;;;5049203;28;20021;-56
2022/12/07 08:24:34;;;;;;;24.95;18.25;;;2.90;99.90;;;;;;5049480;28;20025;-56
2022/12/07 08:27:05;;;;;;;19.55;14.77;;;3.00;99.90;;;;;;5049228;28;20035;-57
2022/12/07 08:29:30;;;;;;;25.00;17.33;;;3.10;99.90;;;;;;5049169;28;20365;-56
2022/12/07 08:31:56;;;;;;;27.02;17.58;;;3.00;99.90;;;;;;5048897;28;20021;-55
2022/12/07 08:34:22;;;;;;;23.45;17.40;;;3.10;99.90;;;;;;5048324;28;20032;-57
2022/12/07 08:36:47;;;;;;;22.10;16.52;;;3.10;99.90;;;;;;5048941;28;20033;-53
2022/12/07 08:39:13;;;;;;;21.83;15.57;;;3.20;99.90;;;;;;5048931;28;20052;-53
2022/12/07 08:41:39;;;;;;;20.60;14.52;;;3.30;99.90;;;;;;5049248;28;20028;-56
2022/12/07 08:44:05;;;;;;;23.10;16.75;;;3.40;99.90;;;;;;5047665;28;20043;-56
2022/12/07 08:46:33;;;;;;;22.67;16.05;;;3.30;99.90;;;;;;5048843;28;20582;-54
2022/12/07 08:49:06;;;;;;;59.88;33.10;;;3.30;99.90;;;;;;5048693;28;20024;-57
2022/12/07 08:51:32;;;;;;;23.13;15.77;;;3.30;99.90;;;;;;5048761;28;20017;-55
2022/12/07 08:54:01;;;;;;;25.20;16.85;;;3.30;99.90;;;;;;5048762;28;20090;-56
2022/12/07 08:56:27;;;;;;;21.83;16.42;;;3.40;99.90;;;;;;5048890;28;20058;-54
2022/12/07 08:58:53;;;;;;;20.45;16.13;;;3.40;99.90;;;;;;5048644;28;20429;-55
2022/12/07 09:01:18;;;;;;;21.25;15.65;;;3.40;99.90;;;;;;5048674;28;20029;-57
2022/12/07 09:03:44;;;;;;;22.33;15.60;;;3.40;99.90;;;;;;5048701;28;20029;-52
2022/12/07 09:06:10;;;;;;;21.42;15.60;;;3.40;99.90;;;;;;5048525;28;20033;-56
2022/12/07 09:08:42;;;;;;;18.23;14.20;;;3.60;99.90;;;;;;5048537;28;20021;-57
2022/12/07 09:11:08;;;;;;;20.40;15.07;;;3.60;99.90;;;;;;5048343;28;20504;-55
2022/12/07 09:13:34;;;;;;;23.70;16.10;;;3.70;99.90;;;;;;5048446;28;20075;-54
2022/12/07 09:15:59;;;;;;;20.70;15.05;;;3.50;99.90;;;;;;5048278;28;20035;-56
2022/12/07 09:18:25;;;;;;;21.73;15.90;;;3.50;99.90;;;;;;5048305;28;20029;-54
2022/12/07 09:20:51;;;;;;;26.45;16.10;;;3.50;99.90;;;;;;5048453;28;20021;-55
2022/12/07 09:23:17;;;;;;;21.38;15.95;;;3.50;99.90;;;;;;5048377;28;20028;-56
2022/12/07 09:25:43;;;;;;;33.78;15.18;;;3.50;99.90;;;;;;5048353;28;20052;-56
2022/12/07 09:28:08;;;;;;;19.98;14.73;;;3.40;99.90;;;;;;5048232;28;20033;-54
2022/12/07 09:30:34;;;;;;;21.90;15.43;;;3.50;99.90;;;;;;5048276;28;20021;-54
2022/12/07 09:33:00;;;;;;;27.17;18.33;;;3.40;99.90;;;;;;5047952;28;20027;-57
2022/12/07 09:35:26;;;;;;;28.10;17.80;;;3.30;99.90;;;;;;5047863;28;20068;-55
2022/12/07 09:37:52;;;;;;;24.08;14.65;;;3.50;99.90;;;;;;5047984;28;20025;-56
2022/12/07 09:40:21;;;;;;;23.05;15.50;;;3.50;99.90;;;;;;5048083;28;20063;-55
2022/12/07 09:42:52;;;;;;;19.25;13.68;;;3.50;99.90;;;;;;5048081;28;20631;-55
2022/12/07 09:45:32;;;;;;;23.40;14.60;;;3.50;99.90;;;;;;5047937;28;20026;-55
2022/12/07 09:47:59;;;;;;;20.55;15.27;;;3.60;99.90;;;;;;5047864;28;20391;-57
2022/12/07 09:50:28;;;;;;;16.88;12.60;;;3.60;99.90;;;;;;5047954;28;20111;-55
2022/12/07 09:53:16;;;;;;;21.60;14.20;;;3.70;99.90;;;;;;5048102;28;20394;-50
2022/12/07 09:55:42;;;;;;;19.17;12.88;;;3.60;99.90;;;;;;5047256;28;20068;-56
2022/12/07 09:58:20;;;;;;;18.95;13.85;;;3.80;99.90;;;;;;5047758;28;20029;-57
2022/12/07 10:00:45;;;;;;;20.95;16.65;;;3.80;99.90;;;;;;5047836;28;20041;-57
2022/12/07 10:03:12;;;;;;;25.60;18.38;;;3.80;99.90;;;;;;5047585;28;20053;-57
2022/12/07 10:05:44;;;;;;;18.92;14.45;;;3.80;99.90;;;;;;5047695;28;20020;-56
2022/12/07 10:08:13;;;;;;;25.27;16.23;;;4.00;99.90;;;;;;5047445;28;20021;-56
2022/12/07 10:10:39;;;;;;;22.63;15.77;;;3.90;99.90;;;;;;5047520;28;20444;-55
2022/12/07 10:13:12;;;;;;;26.63;15.77;;;3.90;99.90;;;;;;5047342;28;20514;-56
2022/12/07 10:15:56;;;;;;;20.45;15.43;;;3.80;99.90;;;;;;5047679;28;20033;-54
2022/12/07 10:18:26;;;;;;;27.88;14.68;;;3.90;99.90;;;;;;5047479;28;20388;-56
2022/12/07 10:21:14;;;;;;;24.70;14.75;;;4.10;99.90;;;;;;5046213;28;20025;-55
2022/12/07 10:23:42;;;;;;;20.05;13.98;;;3.90;99.90;;;;;;5047625;28;20067;-56
2022/12/07 10:26:30;;;;;;;15.20;12.20;;;4.10;99.90;;;;;;5047285;28;20021;-56
2022/12/07 10:29:01;;;;;;;18.63;12.75;;;4.20;99.90;;;;;;5047342;28;20018;-57
2022/12/07 10:31:26;;;;;;;19.30;13.70;;;4.30;99.90;;;;;;5047349;28;20512;-50
2022/12/07 10:33:57;;;;;;;18.45;13.75;;;4.40;99.90;;;;;;5047188;28;20025;-55
2022/12/07 10:36:29;;;;;;;17.70;14.27;;;4.50;99.90;;;;;;5033842;28;20413;-57
2022/12/07 10:39:12;;;;;;;31.45;18.60;;;4.30;99.90;;;;;;5047828;28;20047;-58
2022/12/07 10:42:05;;;;;;;18.50;13.57;;;4.40;99.90;;;;;;5048345;28;20025;-54
2022/12/07 10:44:33;;;;;;;22.02;15.25;;;4.50;99.90;;;;;;5046046;27;20044;-56
2022/12/07 10:46:58;;;;;;;22.30;15.65;;;4.40;99.90;;;;;;5046325;28;20395;-56
2022/12/07 10:49:24;;;;;;;34.53;20.17;;;4.30;99.90;;;;;;5029603;28;20037;-56
2022/12/07 10:52:05;;;;;;;40.92;21.02;;;4.30;99.90;;;;;;5028321;28;20068;-56
2022/12/07 10:55:05;;;;;;;17.38;12.65;;;4.50;99.90;;;;;;5046128;28;20351;-55
2022/12/07 10:57:51;;;;;;;19.88;13.70;;;4.70;99.90;;;;;;4964553;28;20053;-56
2022/12/07 11:00:32;;;;;;;22.35;15.95;;;4.80;99.90;;;;;;5021118;28;20026;-54
2022/12/07 11:03:36;;;;;;;19.27;12.43;;;4.40;99.90;;;;;;5021394;28;20029;-57
2022/12/07 11:06:46;;;;;;;16.63;13.15;;;4.30;99.90;;;;;;4989850;28;20129;-55
2022/12/07 11:09:14;;;;;;;18.23;14.05;;;4.60;99.90;;;;;;5019579;28;20057;-55
2022/12/07 11:12:10;;;;;;;17.75;13.55;;;4.40;99.90;;;;;;5020469;28;20072;-54
2022/12/07 11:14:50;;;;;;;22.63;15.20;;;4.40;99.90;;;;;;5021363;28;20078;-56
2022/12/07 11:17:35;;;;;;;17.95;13.95;;;4.30;99.90;;;;;;5019969;28;20034;-57
2022/12/07 11:20:16;;;;;;;15.32;12.27;;;4.30;99.90;;;;;;5019900;28;20025;-57
2022/12/07 11:23:04;;;;;;;15.57;11.73;;;4.30;99.90;;;;;;5019846;28;20128;-57
2022/12/07 11:25:38;;;;;;;17.10;12.27;;;4.40;99.90;;;;;;5020656;28;20053;-55
2022/12/07 11:28:10;;;;;;;17.83;13.55;;;4.30;99.90;;;;;;5020280;28;20037;-54
2022/12/07 11:30:58;;;;;;;14.88;12.70;;;4.20;99.90;;;;;;5020566;28;20052;-55
2022/12/07 11:33:29;;;;;;;18.27;13.38;;;4.30;99.90;;;;;;5018719;28;20056;-56
2022/12/07 11:36:15;;;;;;;18.85;12.13;;;4.40;99.90;;;;;;5020482;28;20034;-53
2022/12/07 11:38:53;;;;;;;18.58;13.40;;;4.50;99.90;;;;;;5021903;28;20078;-53
2022/12/07 11:41:40;;;;;;;19.27;14.20;;;4.50;99.90;;;;;;5020263;28;20025;-56
2022/12/07 11:44:26;;;;;;;17.02;12.68;;;4.40;99.90;;;;;;5020211;28;20494;-57
2022/12/07 11:46:59;;;;;;;17.02;12.68;;;4.60;99.90;;;;;;5020547;28;20364;-56
2022/12/07 11:49:47;;;;;;;16.42;12.10;;;4.40;99.90;;;;;;5020330;28;20018;-56
2022/12/07 11:52:49;;;;;;;33.90;15.35;;;4.80;99.90;;;;;;5020642;28;20098;-57
2022/12/07 11:55:39;;;;;;;17.75;12.60;;;5.10;99.90;;;;;;5018837;28;22446;-55
2022/12/07 11:58:35;;;;;;;17.30;12.73;;;5.00;99.90;;;;;;5030883;28;20627;-56
2022/12/07 12:01:23;;;;;;;14.45;11.30;;;5.00;99.90;;;;;;5040195;28;20486;-55
2022/12/07 12:03:52;;;;;;;15.20;11.80;;;5.20;99.90;;;;;;5039633;27;20076;-56
2022/12/07 12:06:19;;;;;;;18.67;12.27;;;5.00;99.90;;;;;;5027072;28;20025;-55
2022/12/07 12:08:53;;;;;;;16.13;12.20;;;5.00;99.90;;;;;;5018705;28;20042;-56
2022/12/07 12:11:24;;;;;;;16.90;12.80;;;5.10;99.90;;;;;;5038060;28;20606;-57
2022/12/07 12:14:21;;;;;;;18.45;13.13;;;5.30;99.90;;;;;;5023116;28;20668;-56
2022/12/07 12:17:17;;;;;;;15.00;11.85;;;5.50;99.90;;;;;;5019507;28;20060;-58
2022/12/07 12:20:00;;;;;;;16.55;12.18;;;5.40;99.90;;;;;;5038516;28;20455;-55
2022/12/07 12:22:36;;;;;;;18.77;12.30;;;5.30;99.90;;;;;;5019181;28;20044;-56
2022/12/07 12:25:05;;;;;;;15.60;12.57;;;5.20;99.90;;;;;;5038337;27;20056;-57
2022/12/07 12:27:36;;;;;;;15.30;11.40;;;5.20;99.90;;;;;;5039096;28;20033;-56
2022/12/07 12:30:06;;;;;;;16.40;12.05;;;5.00;99.90;;;;;;5038021;27;20476;-56
2022/12/07 12:32:43;;;;;;;41.90;21.25;;;4.80;99.90;;;;;;5036696;27;20044;-57
2022/12/07 12:35:32;;;;;;;17.63;12.35;;;4.50;99.90;;;;;;5038469;28;20029;-56
2022/12/07 12:38:26;;;;;;;19.27;13.55;;;4.60;99.90;;;;;;5020499;27;20124;-58
2022/12/07 12:40:53;;;;;;;21.17;15.93;;;4.50;99.90;;;;;;5018503;28;20032;-55
2022/12/07 12:43:44;;;;;;;22.63;14.43;;;4.60;99.90;;;;;;5017826;28;20029;-57
2022/12/07 12:46:34;;;;;;;18.35;13.45;;;4.80;99.90;;;;;;5018466;27;20033;-56
2022/12/07 12:49:19;;;;;;;21.52;13.25;;;5.00;99.90;;;;;;5018129;28;20027;-56
2022/12/07 12:51:52;;;;;;;20.63;12.90;;;5.20;99.90;;;;;;5019718;28;20029;-56
2022/12/07 12:54:18;;;;;;;;;;;5.30;99.90;;;;;;5018530;28;20124;-57
2022/12/07 12:57:16;;;;;;;13.40;10.75;;;5.50;99.90;;;;;;5017840;28;20000;-57
2022/12/07 12:59:51;;;;;;;18.73;13.48;;;5.50;99.90;;;;;;5017745;28;20029;-57
2022/12/07 13:02:28;;;;;;;18.20;13.27;;;5.10;99.90;;;;;;5017504;28;20026;-57